createdAt,value
2019-06-27T00:00:01.912Z,15.73
2019-06-27T00:02:30.313Z,18.40
2019-06-27T00:04:58.746Z,11.47
2019-06-27T00:07:27.250Z,16.97
2019-06-27T00:09:55.655Z,21.23
2019-06-27T00:12:24.062Z,12.30
2019-06-27T00:14:52.509Z,24.23
2019-06-27T00:17:20.912Z,18.10
2019-06-27T00:19:49.376Z,14.03
2019-06-27T00:22:17.928Z,11.27
2019-06-27T00:24:46.314Z,15.17
2019-06-27T00:27:14.714Z,12.73
2019-06-27T00:29:43.258Z,15.33
2019-06-27T00:32:11.670Z,17.23
2019-06-27T00:34:40.079Z,14.73
2019-06-27T00:37:08.512Z,15.10
2019-06-27T00:39:36.946Z,9.20
2019-06-27T00:42:05.344Z,16.33
2019-06-27T00:44:33.793Z,13.57
2019-06-27T00:47:02.196Z,22.47
2019-06-27T00:49:30.596Z,18.93
2019-06-27T00:51:59.020Z,19.73
2019-06-27T00:54:27.521Z,10.90
2019-06-27T00:57:04.022Z,20.10
2019-06-27T00:59:26.041Z,16.33
2019-06-27T01:01:54.442Z,17.80
2019-06-27T01:04:22.861Z,17.47
2019-06-27T01:06:54.285Z,15.33
2019-06-27T01:09:22.686Z,19.50
2019-06-27T01:11:51.156Z,17.27
2019-06-27T01:14:19.798Z,13.23
2019-06-27T01:16:48.268Z,13.60
2019-06-27T01:19:16.670Z,16.50
2019-06-27T01:21:45.242Z,14.73
2019-06-27T01:24:13.645Z,15.17
2019-06-27T01:26:42.044Z,13.80
2019-06-27T01:29:10.576Z,15.70
2019-06-27T01:31:38.976Z,11.47
2019-06-27T01:34:07.499Z,16.10
2019-06-27T01:36:36.039Z,15.03
2019-06-27T01:39:05.576Z,16.37
2019-06-27T01:41:33.978Z,14.73
2019-06-27T01:44:02.440Z,16.67
2019-06-27T01:46:30.845Z,20.67
2019-06-27T01:48:59.242Z,12.30
2019-06-27T01:51:27.828Z,18.00
2019-06-27T01:53:56.260Z,16.00
2019-06-27T01:56:24.636Z,14.77
2019-06-27T01:58:53.177Z,17.87
2019-06-27T02:01:21.656Z,17.53
2019-06-27T02:03:50.060Z,17.13
2019-06-27T02:06:18.499Z,16.50
2019-06-27T02:08:46.898Z,17.30
2019-06-27T02:11:15.301Z,18.17
2019-06-27T02:13:43.859Z,11.87
2019-06-27T02:16:12.332Z,13.10
2019-06-27T02:18:40.734Z,12.67
2019-06-27T02:21:09.165Z,14.07
2019-06-27T02:23:37.617Z,16.47
2019-06-27T02:26:05.971Z,14.97
2019-06-27T02:28:34.433Z,17.37
2019-06-27T02:31:02.839Z,18.63
2019-06-27T02:33:31.241Z,16.80
2019-06-27T02:35:59.665Z,16.10
2019-06-27T02:38:28.076Z,15.13
2019-06-27T02:40:58.693Z,21.37
2019-06-27T02:43:26.748Z,16.03
2019-06-27T02:45:55.143Z,19.13
2019-06-27T02:48:23.551Z,15.90
2019-06-27T02:50:51.999Z,12.10
2019-06-27T02:53:20.406Z,13.57
2019-06-27T02:55:48.801Z,18.37
2019-06-27T02:58:29.830Z,13.60
2019-06-27T03:00:47.431Z,18.87
2019-06-27T03:03:15.822Z,19.23
2019-06-27T03:05:44.250Z,14.93
2019-06-27T03:08:12.738Z,10.40
2019-06-27T03:10:41.198Z,18.27
2019-06-27T03:13:09.624Z,13.40
2019-06-27T03:15:38.112Z,17.40
2019-06-27T03:18:06.518Z,19.00
2019-06-27T03:20:34.950Z,15.90
2019-06-27T03:23:03.369Z,16.47
2019-06-27T03:25:31.745Z,18.23
2019-06-27T03:28:00.201Z,21.83
2019-06-27T03:30:28.599Z,18.73
2019-06-27T03:32:57.072Z,17.30
2019-06-27T03:35:25.635Z,17.80
2019-06-27T03:37:54.036Z,23.27
2019-06-27T03:40:22.571Z,17.57
2019-06-27T03:42:51.103Z,14.30
2019-06-27T03:45:21.051Z,17.37
2019-06-27T03:47:49.457Z,20.27
2019-06-27T03:50:17.874Z,16.93
2019-06-27T03:52:46.354Z,18.40
2019-06-27T03:55:14.815Z,17.40
2019-06-27T03:57:45.301Z,20.00
2019-06-27T04:00:16.426Z,14.40
2019-06-27T04:02:44.819Z,18.77
2019-06-27T04:05:13.253Z,17.37
2019-06-27T04:07:41.657Z,16.40
2019-06-27T04:10:10.246Z,19.57
2019-06-27T04:12:38.674Z,15.63
2019-06-27T04:15:28.582Z,22.37
2019-06-27T04:17:57.004Z,16.70
2019-06-27T04:20:25.479Z,16.63
2019-06-27T04:22:53.881Z,17.40
2019-06-27T04:25:22.323Z,20.03
2019-06-27T04:27:50.737Z,16.03
2019-06-27T04:30:19.471Z,20.93
2019-06-27T04:32:47.958Z,15.10
2019-06-27T04:35:16.436Z,12.70
2019-06-27T04:37:44.834Z,17.97
2019-06-27T04:40:13.466Z,14.27
2019-06-27T04:42:41.936Z,12.40
2019-06-27T04:45:10.439Z,14.00
2019-06-27T04:47:39.049Z,16.23
2019-06-27T04:50:07.554Z,15.67
2019-06-27T04:52:36.220Z,14.40
2019-06-27T04:55:06.706Z,18.20
2019-06-27T04:57:35.128Z,13.10
2019-06-27T05:00:04.451Z,16.00
2019-06-27T05:02:35.015Z,19.67
2019-06-27T05:05:03.495Z,14.03
2019-06-27T05:07:31.905Z,14.67
2019-06-27T05:10:00.356Z,18.30
2019-06-27T05:12:28.768Z,12.60
2019-06-27T05:14:57.162Z,13.57
2019-06-27T05:17:25.584Z,19.10
2019-06-27T05:19:53.986Z,19.47
2019-06-27T05:22:22.388Z,14.60
2019-06-27T05:24:50.816Z,24.57
2019-06-27T05:27:19.268Z,15.23
2019-06-27T05:29:47.665Z,20.30
2019-06-27T05:32:16.098Z,15.37
2019-06-27T05:34:44.604Z,15.13
2019-06-27T05:37:13.092Z,18.17
2019-06-27T05:39:41.533Z,16.10
2019-06-27T05:42:10.088Z,14.93
2019-06-27T05:44:38.490Z,16.17
2019-06-27T05:47:06.916Z,15.60
2019-06-27T05:49:35.326Z,17.53
2019-06-27T05:52:03.795Z,21.20
2019-06-27T05:54:32.325Z,18.37
2019-06-27T05:57:00.708Z,15.90
2019-06-27T05:59:29.156Z,10.37
2019-06-27T06:01:57.667Z,16.10
2019-06-27T06:04:26.064Z,16.67
2019-06-27T06:06:54.471Z,15.57
2019-06-27T06:09:23.015Z,15.73
2019-06-27T06:11:51.548Z,22.00
2019-06-27T06:14:19.957Z,17.90
2019-06-27T06:16:48.378Z,15.20
2019-06-27T06:19:16.842Z,15.27
2019-06-27T06:21:45.248Z,19.20
2019-06-27T06:24:13.791Z,15.37
2019-06-27T06:26:42.207Z,19.13
2019-06-27T06:29:10.659Z,16.67
2019-06-27T06:31:39.334Z,21.13
2019-06-27T06:34:07.750Z,15.40
2019-06-27T06:36:36.151Z,18.47
2019-06-27T06:39:05.604Z,12.27
2019-06-27T06:41:34.032Z,17.70
2019-06-27T06:44:02.698Z,16.00
2019-06-27T06:46:31.114Z,17.40
2019-06-27T06:48:59.519Z,17.60
2019-06-27T06:51:27.919Z,18.63
2019-06-27T06:53:56.472Z,16.57
2019-06-27T06:56:24.896Z,22.03
2019-06-27T06:58:53.310Z,15.33
2019-06-27T07:01:21.836Z,17.23
2019-06-27T07:03:50.249Z,17.40
2019-06-27T07:06:18.655Z,17.13
2019-06-27T07:08:47.200Z,14.67
2019-06-27T07:11:15.707Z,19.43
2019-06-27T07:13:44.083Z,22.10
2019-06-27T07:16:12.538Z,13.67
2019-06-27T07:18:40.929Z,16.10
2019-06-27T07:21:09.348Z,20.23
2019-06-27T07:23:37.765Z,18.17
2019-06-27T07:26:06.161Z,18.17
2019-06-27T07:28:34.563Z,14.37
2019-06-27T07:31:16.836Z,17.53
2019-06-27T07:33:33.156Z,17.00
2019-06-27T07:36:01.558Z,21.83
2019-06-27T07:38:29.989Z,15.73
2019-06-27T07:40:58.397Z,13.87
2019-06-27T07:43:26.790Z,18.33
2019-06-27T07:45:55.387Z,17.93
2019-06-27T07:48:23.848Z,18.83
2019-06-27T07:50:52.252Z,18.80
2019-06-27T07:53:20.688Z,13.30
2019-06-27T07:55:49.184Z,20.03
2019-06-27T07:58:17.577Z,19.10
2019-06-27T08:00:46.012Z,14.37
2019-06-27T08:03:14.411Z,16.17
2019-06-27T08:05:42.809Z,18.03
2019-06-27T08:08:11.237Z,20.47
2019-06-27T08:10:39.770Z,19.97
2019-06-27T08:13:08.118Z,13.33
2019-06-27T08:15:36.662Z,20.50
2019-06-27T08:18:05.060Z,17.37
2019-06-27T08:20:33.468Z,21.20
2019-06-27T08:23:01.959Z,17.13
2019-06-27T08:25:30.350Z,15.70
2019-06-27T08:27:58.821Z,16.90
2019-06-27T08:30:27.704Z,23.97
2019-06-27T08:32:56.115Z,17.17
2019-06-27T08:35:24.592Z,19.83
2019-06-27T08:37:53.011Z,20.30
2019-06-27T08:40:21.594Z,16.03
2019-06-27T08:42:50.053Z,21.00
2019-06-27T08:45:20.353Z,15.23
2019-06-27T08:47:48.786Z,22.77
2019-06-27T08:50:17.830Z,13.47
2019-06-27T08:52:46.404Z,14.20
2019-06-27T08:55:15.041Z,15.80
2019-06-27T08:57:43.450Z,16.80
2019-06-27T09:00:13.589Z,17.57
2019-06-27T09:02:42.064Z,22.17
2019-06-27T09:05:11.390Z,21.20
2019-06-27T09:07:39.846Z,21.03
2019-06-27T09:10:08.971Z,23.03
2019-06-27T09:12:37.379Z,24.77
2019-06-27T09:15:07.118Z,15.13
2019-06-27T09:17:36.122Z,20.63
2019-06-27T09:20:07.371Z,21.03
2019-06-27T09:22:35.796Z,15.97
2019-06-27T09:25:06.644Z,17.90
2019-06-27T09:27:35.043Z,17.97
2019-06-27T09:30:07.960Z,20.57
2019-06-27T09:32:36.388Z,17.50
2019-06-27T09:35:06.707Z,18.20
2019-06-27T09:37:35.113Z,15.97
2019-06-27T09:40:05.366Z,18.10
2019-06-27T09:42:33.787Z,13.60
2019-06-27T09:45:02.339Z,14.97
2019-06-27T09:47:30.745Z,15.93
2019-06-27T09:49:59.138Z,21.30
2019-06-27T09:52:27.845Z,19.73
2019-06-27T09:54:56.826Z,16.97
2019-06-27T09:57:25.223Z,21.43
2019-06-27T09:59:53.665Z,16.93
2019-06-27T10:02:22.070Z,12.95
2019-06-27T10:04:50.545Z,14.78
2019-06-27T10:07:18.967Z,17.77
2019-06-27T10:09:47.377Z,16.97
2019-06-27T10:12:15.800Z,15.30
2019-06-27T10:14:44.231Z,11.68
2019-06-27T10:17:12.628Z,16.02
2019-06-27T10:19:41.720Z,17.00
2019-06-27T10:22:10.176Z,14.60
2019-06-27T10:24:38.591Z,18.85
2019-06-27T10:27:08.640Z,15.95
2019-06-27T10:29:37.078Z,18.07
2019-06-27T10:32:05.554Z,13.85
2019-06-27T10:34:33.954Z,18.42
2019-06-27T10:37:02.431Z,16.75
2019-06-27T10:39:30.858Z,14.43
2019-06-27T10:41:59.235Z,15.58
2019-06-27T10:44:27.673Z,15.80
2019-06-27T10:46:56.061Z,17.45
2019-06-27T10:49:24.459Z,11.97
2019-06-27T10:51:53.043Z,13.28
2019-06-27T10:54:21.441Z,11.43
2019-06-27T10:56:49.850Z,15.23
2019-06-27T10:59:18.459Z,15.50
2019-06-27T11:01:46.871Z,14.58
2019-06-27T11:04:15.276Z,15.08
2019-06-27T11:06:43.691Z,11.45
2019-06-27T11:09:14.324Z,14.98
2019-06-27T11:11:42.217Z,16.62
2019-06-27T11:14:11.012Z,17.75
2019-06-27T11:16:39.409Z,14.87
2019-06-27T11:19:07.809Z,12.50
2019-06-27T11:21:36.329Z,16.27
2019-06-27T11:24:04.797Z,14.20
2019-06-27T11:26:33.278Z,12.13
2019-06-27T11:29:01.911Z,14.43
2019-06-27T11:31:30.288Z,15.58
2019-06-27T11:33:58.710Z,17.85
2019-06-27T11:36:27.129Z,19.30
2019-06-27T11:38:55.528Z,14.33
2019-06-27T11:41:23.934Z,14.35
2019-06-27T11:43:52.368Z,14.28
2019-06-27T11:46:20.764Z,11.65
2019-06-27T11:48:49.257Z,13.53
2019-06-27T11:51:17.697Z,14.50
2019-06-27T11:53:46.249Z,11.63
2019-06-27T11:56:14.651Z,13.80
2019-06-27T11:58:43.098Z,11.15
2019-06-27T12:01:11.497Z,14.50
2019-06-27T12:03:49.479Z,13.05
2019-06-27T12:06:10.076Z,11.03
2019-06-27T12:08:38.487Z,12.18
2019-06-27T12:11:06.923Z,15.28
2019-06-27T12:13:35.493Z,8.85
2019-06-27T12:16:03.929Z,11.95
2019-06-27T12:18:32.329Z,12.82
2019-06-27T12:21:05.775Z,12.10
2019-06-27T12:23:32.435Z,12.78
2019-06-27T12:26:00.836Z,13.83
2019-06-27T12:28:29.290Z,11.18
2019-06-27T12:30:57.695Z,7.35
2019-06-27T12:33:26.103Z,11.63
2019-06-27T12:35:54.533Z,11.85
2019-06-27T12:38:22.933Z,11.12
2019-06-27T12:40:51.344Z,17.87
2019-06-27T12:43:19.759Z,15.60
2019-06-27T12:45:48.157Z,11.25
2019-06-27T12:48:16.563Z,12.23
2019-06-27T12:50:45.250Z,13.68
2019-06-27T12:53:13.658Z,10.88
2019-06-27T12:55:42.055Z,15.85
2019-06-27T12:58:10.496Z,12.93
2019-06-27T13:00:39.440Z,18.12
2019-06-27T13:03:07.837Z,14.60
2019-06-27T13:05:36.272Z,14.35
2019-06-27T13:08:04.748Z,12.25
2019-06-27T13:10:36.353Z,11.53
2019-06-27T13:13:05.152Z,18.30
2019-06-27T13:15:33.993Z,9.48
2019-06-27T13:18:02.525Z,11.95
2019-06-27T13:20:31.205Z,11.35
2019-06-27T13:22:59.605Z,10.00
2019-06-27T13:25:28.009Z,13.10
2019-06-27T13:27:56.545Z,17.45
2019-06-27T13:30:25.192Z,13.53
2019-06-27T13:32:53.661Z,15.10
2019-06-27T13:35:22.091Z,13.53
2019-06-27T13:37:50.494Z,14.25
2019-06-27T13:40:19.829Z,13.98
2019-06-27T13:42:48.533Z,16.27
2019-06-27T13:45:17.220Z,11.68
2019-06-27T13:47:45.760Z,14.00
2019-06-27T13:50:15.066Z,16.65
2019-06-27T13:52:43.455Z,11.83
2019-06-27T13:55:12.093Z,13.03
2019-06-27T13:57:40.545Z,12.20
2019-06-27T14:00:10.964Z,18.45
2019-06-27T14:02:39.309Z,13.93
2019-06-27T14:05:08.303Z,14.20
2019-06-27T14:07:36.701Z,9.15
2019-06-27T14:10:09.641Z,11.90
2019-06-27T14:12:38.080Z,10.43
2019-06-27T14:15:08.222Z,12.58
2019-06-27T14:17:36.620Z,14.90
2019-06-27T14:20:07.401Z,14.83
2019-06-27T14:22:35.797Z,15.10
2019-06-27T14:25:07.339Z,14.30
2019-06-27T14:27:35.775Z,13.53
2019-06-27T14:30:08.288Z,16.15
2019-06-27T14:32:38.332Z,14.85
2019-06-27T14:35:15.225Z,13.75
2019-06-27T14:37:37.244Z,14.20
2019-06-27T14:40:11.740Z,15.80
2019-06-27T14:42:40.141Z,13.18
2019-06-27T14:45:08.886Z,13.30
2019-06-27T14:47:37.423Z,19.05
2019-06-27T14:50:06.613Z,13.35
2019-06-27T14:52:35.230Z,14.63
2019-06-27T14:55:06.724Z,17.12
2019-06-27T14:57:35.548Z,15.90
2019-06-27T15:00:05.755Z,16.37
2019-06-27T15:02:34.339Z,11.48
2019-06-27T15:05:02.741Z,16.73
2019-06-27T15:07:31.141Z,12.58
2019-06-27T15:09:59.681Z,12.88
2019-06-27T15:12:28.084Z,12.98
2019-06-27T15:14:56.500Z,14.58
2019-06-27T15:17:24.940Z,17.57
2019-06-27T15:19:53.347Z,17.92
2019-06-27T15:22:21.747Z,12.25
2019-06-27T15:24:50.193Z,10.35
2019-06-27T15:27:18.603Z,15.58
2019-06-27T15:29:46.989Z,13.75
2019-06-27T15:32:15.425Z,18.45
2019-06-27T15:34:44.128Z,10.48
2019-06-27T15:37:12.548Z,11.10
2019-06-27T15:39:42.719Z,14.25
2019-06-27T15:42:11.120Z,15.95
2019-06-27T15:44:39.524Z,13.75
2019-06-27T15:47:07.977Z,12.73
2019-06-27T15:49:36.376Z,15.32
2019-06-27T15:52:04.813Z,10.58
2019-06-27T15:54:33.289Z,14.15
2019-06-27T15:57:01.698Z,16.65
2019-06-27T15:59:30.094Z,11.05
2019-06-27T16:01:58.513Z,18.45
2019-06-27T16:04:32.801Z,12.20
2019-06-27T16:06:57.055Z,11.28
2019-06-27T16:09:25.694Z,16.45
2019-06-27T16:11:54.105Z,18.07
2019-06-27T16:14:22.572Z,13.30
2019-06-27T16:16:51.170Z,17.62
2019-06-27T16:19:19.581Z,11.28
2019-06-27T16:21:47.991Z,14.07
2019-06-27T16:24:16.436Z,11.60
2019-06-27T16:26:44.840Z,11.73
2019-06-27T16:29:13.322Z,17.12
2019-06-27T16:31:41.764Z,15.85
2019-06-27T16:34:10.164Z,11.93
2019-06-27T16:36:38.576Z,13.25
2019-06-27T16:39:07.278Z,13.40
2019-06-27T16:41:35.693Z,14.43
2019-06-27T16:44:04.172Z,12.15
2019-06-27T16:46:32.773Z,12.68
2019-06-27T16:49:01.179Z,12.37
2019-06-27T16:51:29.584Z,13.88
2019-06-27T16:53:58.004Z,16.45
2019-06-27T16:56:26.410Z,13.68
2019-06-27T16:58:55.092Z,14.30
2019-06-27T17:01:23.540Z,11.73
2019-06-27T17:03:52.020Z,11.30
2019-06-27T17:06:20.381Z,14.73
2019-06-27T17:08:48.899Z,13.08
2019-06-27T17:11:17.303Z,10.23
2019-06-27T17:13:45.699Z,14.10
2019-06-27T17:16:14.143Z,12.75
2019-06-27T17:18:42.544Z,12.93
2019-06-27T17:21:11.025Z,10.90
2019-06-27T17:23:39.460Z,10.18
2019-06-27T17:26:11.488Z,17.80
2019-06-27T17:28:38.033Z,16.52
2019-06-27T17:31:06.491Z,10.98
2019-06-27T17:33:36.526Z,17.70
2019-06-27T17:36:05.006Z,14.55
2019-06-27T17:38:33.545Z,12.33
2019-06-27T17:41:01.944Z,11.73
2019-06-27T17:43:30.349Z,15.40
2019-06-27T17:45:58.866Z,16.62
2019-06-27T17:48:27.258Z,18.45
2019-06-27T17:50:55.669Z,17.95
2019-06-27T17:53:24.088Z,10.80
2019-06-27T17:55:52.500Z,12.47
2019-06-27T17:58:21.015Z,15.48
2019-06-27T18:00:49.665Z,12.70
2019-06-27T18:03:18.071Z,14.18
2019-06-27T18:05:46.590Z,16.07
2019-06-27T18:08:15.157Z,9.70
2019-06-27T18:10:43.554Z,10.45
2019-06-27T18:13:11.953Z,13.08
2019-06-27T18:15:40.448Z,11.80
2019-06-27T18:18:08.851Z,16.05
2019-06-27T18:20:38.017Z,12.35
2019-06-27T18:23:06.549Z,18.67
2019-06-27T18:25:34.943Z,12.82
2019-06-27T18:28:04.753Z,15.25
2019-06-27T18:30:33.269Z,14.00
2019-06-27T18:33:01.675Z,14.55
2019-06-27T18:35:30.091Z,12.00
2019-06-27T18:37:58.538Z,13.72
2019-06-27T18:40:28.214Z,13.35
2019-06-27T18:42:56.525Z,13.20
2019-06-27T18:45:25.015Z,14.73
2019-06-27T18:47:53.487Z,10.30
2019-06-27T18:50:21.891Z,11.30
2019-06-27T18:52:50.335Z,12.10
2019-06-27T18:55:18.809Z,14.28
2019-06-27T18:57:47.217Z,12.00
2019-06-27T19:00:15.982Z,11.73
2019-06-27T19:02:44.453Z,14.78
2019-06-27T19:05:13.195Z,12.60
2019-06-27T19:07:45.818Z,19.55
2019-06-27T19:10:11.937Z,12.40
2019-06-27T19:12:40.442Z,14.10
2019-06-27T19:15:11.076Z,19.30
2019-06-27T19:17:39.544Z,14.60
2019-06-27T19:20:25.695Z,12.28
2019-06-27T19:22:58.731Z,17.95
2019-06-27T19:25:28.781Z,14.83
2019-06-27T19:27:57.202Z,12.00
2019-06-27T19:30:25.601Z,12.40
2019-06-27T19:32:54.103Z,14.33
2019-06-27T19:35:22.639Z,15.33
2019-06-27T19:38:01.483Z,8.80
2019-06-27T19:40:21.508Z,12.63
2019-06-27T19:42:52.287Z,14.07
2019-06-27T19:45:21.032Z,11.70
2019-06-27T19:47:49.504Z,15.80
2019-06-27T19:50:18.287Z,12.67
2019-06-27T19:52:46.765Z,12.55
2019-06-27T19:55:15.299Z,11.30
2019-06-27T19:57:43.894Z,11.60
2019-06-27T20:00:12.925Z,8.93
2019-06-27T20:02:41.334Z,14.33
2019-06-27T20:05:10.112Z,15.03
2019-06-27T20:07:38.514Z,13.00
2019-06-27T20:10:11.510Z,9.23
2019-06-27T20:12:38.301Z,10.60
2019-06-27T20:15:07.751Z,12.27
2019-06-27T20:17:36.309Z,11.60
2019-06-27T20:20:06.452Z,8.50
2019-06-27T20:22:34.863Z,8.70
2019-06-27T20:25:03.268Z,8.27
2019-06-27T20:27:31.773Z,12.10
2019-06-27T20:30:00.175Z,8.90
2019-06-27T20:32:29.430Z,9.67
2019-06-27T20:34:58.052Z,11.20
2019-06-27T20:37:27.147Z,8.27
2019-06-27T20:39:55.728Z,9.23
2019-06-27T20:42:24.179Z,12.27
2019-06-27T20:44:52.578Z,9.30
2019-06-27T20:47:21.054Z,8.13
2019-06-27T20:49:49.548Z,8.07
2019-06-27T20:52:17.960Z,10.67
2019-06-27T20:54:46.382Z,6.97
2019-06-27T20:57:14.807Z,8.60
2019-06-27T20:59:43.205Z,7.20
2019-06-27T21:02:11.619Z,8.27
2019-06-27T21:04:40.082Z,6.77
2019-06-27T21:07:09.949Z,10.27
2019-06-27T21:09:38.640Z,8.70
2019-06-27T21:12:07.143Z,12.47
2019-06-27T21:14:35.543Z,10.13
2019-06-27T21:17:04.012Z,8.13
2019-06-27T21:19:32.464Z,7.73
2019-06-27T21:22:00.952Z,7.87
2019-06-27T21:24:29.365Z,8.83
2019-06-27T21:26:57.797Z,6.27
2019-06-27T21:29:26.189Z,5.23
2019-06-27T21:31:54.824Z,6.83
2019-06-27T21:34:23.302Z,5.73
2019-06-27T21:36:51.696Z,4.33
2019-06-27T21:39:20.084Z,7.17
2019-06-27T21:41:48.568Z,5.57
2019-06-27T21:44:16.914Z,7.60
2019-06-27T21:46:45.335Z,5.43
2019-06-27T21:49:13.770Z,5.33
2019-06-27T21:51:42.165Z,5.27
2019-06-27T21:54:10.581Z,5.13
2019-06-27T21:56:39.017Z,4.43
2019-06-27T21:59:07.421Z,3.17
2019-06-27T22:01:35.831Z,3.60
2019-06-27T22:04:04.318Z,3.43
2019-06-27T22:06:32.860Z,9.03
2019-06-27T22:09:01.262Z,6.13
2019-06-27T22:11:29.824Z,6.10
2019-06-27T22:13:58.366Z,5.80
2019-06-27T22:16:26.839Z,2.63
2019-06-27T22:18:55.288Z,7.53
2019-06-27T22:21:23.676Z,4.57
2019-06-27T22:23:53.716Z,5.73
2019-06-27T22:26:23.017Z,12.87
2019-06-27T22:28:51.417Z,7.57
2019-06-27T22:31:19.810Z,2.40
2019-06-27T22:33:48.228Z,7.43
2019-06-27T22:36:16.711Z,6.30
2019-06-27T22:39:03.367Z,16.13
2019-06-27T22:41:49.609Z,3.20
2019-06-27T22:44:36.156Z,5.83
2019-06-27T22:47:22.648Z,9.00
2019-06-27T22:49:52.323Z,5.37
2019-06-27T22:52:34.005Z,2.80
2019-06-27T22:55:10.289Z,2.00
2019-06-27T22:57:38.673Z,8.00
2019-06-27T23:00:07.334Z,6.80
2019-06-27T23:02:35.761Z,3.67
2019-06-27T23:05:05.691Z,3.67
2019-06-27T23:07:34.098Z,3.33
2019-06-27T23:10:02.585Z,2.37
2019-06-27T23:12:31.056Z,4.53
2019-06-27T23:14:59.449Z,2.00
2019-06-27T23:17:28.014Z,3.90
2019-06-27T23:19:56.406Z,4.33
2019-06-27T23:22:24.811Z,2.37
2019-06-27T23:24:53.246Z,2.37
2019-06-27T23:27:21.642Z,2.30
2019-06-27T23:29:50.043Z,3.30
2019-06-27T23:32:18.456Z,2.67
2019-06-27T23:34:46.854Z,2.93
2019-06-27T23:37:15.318Z,1.83
2019-06-27T23:39:43.750Z,1.80
2019-06-27T23:42:12.148Z,2.97
2019-06-27T23:44:40.550Z,2.10
2019-06-27T23:47:08.975Z,2.70
2019-06-27T23:49:37.376Z,5.13
2019-06-27T23:52:06.140Z,5.17
2019-06-27T23:54:34.569Z,2.50
2019-06-27T23:57:02.971Z,3.23
2019-06-27T23:59:31.368Z,2.60
